• Join FlightAware (Why Join?)
  • Login
  • US Flag 
04:34PM EDT


 

Airport Tracker/Info


-or-


 

Live Flight TrackerFlight Track Log ✈ UAL4788 ✈ 20-Apr-2013 ✈ KFNT - KCLE

Flight Track Log - Related Links

Times and Time Zones

All times are in EDT time to prevent confusion due to time zone crossing. See the UAL4788 flight status page for this flight to view local times or setup timezone preferences in your user account.

Time Position Orientation Groundspeed Altitude Reporting Facility
EDT Latitude Longitude Course Direction KTS MPH feet Rate Location/Type
07:10AM 42.9461 -83.7614 100° East 146 168 2,400  Level FAA TRACON SMA TRACON (SMA)
07:11AM 42.9275 -83.7561 168° South 171 197 2,800 1,500 Climbing FAA TRACON SMA TRACON (SMA)
07:11AM 42.9156 -83.7394 134° Southeast 201 231 3,400 1,800 Climbing FAA TRACON SMA TRACON (SMA)
07:11AM 42.9092 -83.7142 109° East 192 221 4,000 1,500 Climbing FAA TRACON SMA TRACON (SMA)
07:12AM 42.9081 -83.6892 93° East 194 223 4,400 1,320 Climbing FAA TRACON SMA TRACON (SMA)
07:12AM 42.9072 -83.6672 93° East 193 222 4,900 900 Climbing FAA TRACON SMA TRACON (SMA)
07:12AM 42.9072 -83.6342 90° East 228 262 5,000 120 Climbing FAA TRACON SMA TRACON (SMA)
07:13AM 42.9058 -83.6067 94° East 235 270 5,000  Level FAA TRACON SMA TRACON (SMA)
07:13AM 42.9044 -83.5764 94° East 250 288 5,000  Level FAA TRACON SMA TRACON (SMA)
07:13AM 42.9033 -83.5456 93° East 257 296 5,000  Level FAA TRACON SMA TRACON (SMA)
07:14AM 42.9022 -83.5058 92° East 265 305 5,000  Level FAA TRACON SMA TRACON (SMA)
07:14AM 42.8950 -83.4753 108° East 269 310 5,000  Level FAA TRACON SMA TRACON (SMA)
07:14AM 42.8814 -83.4497 126° Southeast 264 304 5,000  Level FAA TRACON SMA TRACON (SMA)
07:15AM 42.8647 -83.4169 125° Southeast 272 313 5,000  Level FAA TRACON SMA TRACON (SMA)
07:15AM 42.8511 -83.3917 126° Southeast 269 310 5,000 -180 Level FAA TRACON SMA TRACON (SMA)
07:15AM 42.8378 -83.3658 125° Southeast 269 310 4,900  Descending FAA TRACON SMA TRACON (SMA)
07:16AM 42.6803 -83.3876 100° East  Level Estimated
07:16AM 42.8214 -83.3331 124° Southeast 271 312 5,000  Level FAA TRACON SMA TRACON (SMA)
07:16AM 42.8081 -83.3072 125° Southeast 270 311 5,000  Level FAA TRACON SMA TRACON (SMA)
07:16AM 42.7947 -83.2811 125° Southeast 271 312 5,000  Level FAA TRACON SMA TRACON (SMA)
07:17AM 42.7783 -83.2489 125° Southeast 269 310 5,000  Level FAA TRACON SMA TRACON (SMA)
07:17AM 42.7650 -83.2228 125° Southeast 270 311 5,000  Level FAA TRACON SMA TRACON (SMA)
07:17AM 42.7519 -83.1967 124° Southeast 271 312 5,000  Level FAA TRACON SMA TRACON (SMA)
07:18AM 42.7342 -83.1658 128° Southeast 254 292 5,000  Level FAA TRACON SMA TRACON (SMA)
07:18AM 42.7153 -83.1475 145° Southeast 259 298 5,000  Level FAA TRACON SMA TRACON (SMA)
07:18AM 42.6964 -83.1294 145° Southeast 266 306 5,000  Level FAA TRACON SMA TRACON (SMA)
07:19AM 42.6736 -83.1064 143° Southeast 261 300 5,000  Level FAA TRACON SMA TRACON (SMA)
07:19AM 42.6556 -83.0867 141° Southeast 266 306 5,000  Level FAA TRACON SMA TRACON (SMA)
07:19AM 42.6381 -83.0675 141° Southeast 265 305 5,000  Level FAA TRACON SMA TRACON (SMA)
07:20AM 42.6161 -83.0433 141° Southeast 262 302 5,000  Level FAA TRACON SMA TRACON (SMA)
07:20AM 42.5986 -83.0236 140° Southeast 263 303 5,000  Level FAA TRACON SMA TRACON (SMA)
07:20AM 42.5811 -83.0036 140° Southeast 266 306 5,000  Level FAA TRACON SMA TRACON (SMA)
07:21AM 42.5592 -82.9789 140° Southeast 265 305 5,000  Level FAA TRACON SMA TRACON (SMA)
07:21AM 42.5417 -82.9594 141° Southeast 265 305 5,000  Level FAA TRACON SMA TRACON (SMA)
07:21AM 42.5239 -82.9397 141° Southeast 266 306 5,000  Level FAA TRACON SMA TRACON (SMA)
07:22AM 42.5058 -82.9194 140° Southeast 269 310 5,000  Level FAA TRACON SMA TRACON (SMA)
07:22AM 42.4839 -82.8950 141° Southeast 267 307 5,000  Level FAA TRACON SMA TRACON (SMA)
07:22AM 42.4661 -82.8758 142° Southeast 266 306 5,000 -180 Level FAA TRACON SMA TRACON (SMA)
07:23AM 42.4439 -82.8511 141° Southeast 266 306 4,900  Descending FAA TRACON SMA TRACON (SMA)
07:23AM 42.4264 -82.8317 141° Southeast 265 305 5,000  Climbing FAA TRACON SMA TRACON (SMA)
07:23AM 42.4089 -82.8122 141° Southeast 264 304 4,900  Descending FAA TRACON SMA TRACON (SMA)
07:24AM 42.3911 -82.7933 142° Southeast 264 304 5,000 120 Climbing FAA TRACON SMA TRACON (SMA)
07:24AM 42.3694 -82.7692 141° Southeast 262 302 5,000  Level FAA TRACON SMA TRACON (SMA)
07:24AM 42.3519 -82.7500 141° Southeast 263 303 5,000 300 Level FAA TRACON SMA TRACON (SMA)
07:25AM 42.3356 -82.7308 139° Southeast 241 277 5,200 900 Climbing FAA TRACON SMA TRACON (SMA)
07:25AM 42.3142 -82.7078 141° Southeast 251 289 5,600 900 Climbing FAA TRACON SMA TRACON (SMA)
07:25AM 42.2986 -82.6906 141° Southeast 244 281 5,800 600 Climbing FAA TRACON SMA TRACON (SMA)
07:26AM 42.2831 -82.6733 141° Southeast 238 274 6,000 720 Climbing FAA TRACON SMA TRACON (SMA)
07:26AM 42.2633 -82.6517 141° Southeast 238 274 6,300 720 Climbing FAA TRACON SMA TRACON (SMA)
07:26AM 42.2478 -82.6344 141° Southeast 234 269 6,500 720 Climbing FAA TRACON SMA TRACON (SMA)
07:27AM 42.2286 -82.6125 140° Southeast 233 268 6,800 600 Climbing FAA TRACON SMA TRACON (SMA)
07:27AM 42.2131 -82.5953 141° Southeast 235 270 6,900 120 Climbing FAA TRACON SMA TRACON (SMA)
07:27AM 42.1967 -82.5778 142° Southeast 238 274 6,900 120 Level FAA TRACON SMA TRACON (SMA)
07:28AM 42.1800 -82.5597 141° Southeast 245 282 7,000  Climbing FAA TRACON SMA TRACON (SMA)
07:28AM 42.1586 -82.5361 141° Southeast 255 293 6,900 -180 Descending FAA TRACON SMA TRACON (SMA)
07:28AM 42.1411 -82.5167 141° Southeast 260 299 6,900  Level FAA TRACON SMA TRACON (SMA)
07:29AM 42.1231 -82.4972 141° Southeast 264 304 6,900  Level FAA TRACON SMA TRACON (SMA)
07:29AM 42.1011 -82.4728 140° Southeast 264 304 6,900  Level FAA TRACON SMA TRACON (SMA)
07:29AM 42.0833 -82.4533 141° Southeast 265 305 6,900  Level FAA TRACON SMA TRACON (SMA)
07:30AM 42.0656 -82.4344 142° Southeast 265 305 6,900  Level FAA TRACON SMA TRACON (SMA)
07:30AM 42.0436 -82.4103 141° Southeast 263 303 6,900  Level FAA TRACON SMA TRACON (SMA)
07:30AM 42.0256 -82.3914 142° Southeast 265 305 6,900  Level FAA TRACON SMA TRACON (SMA)
07:31AM 42.0083 -82.3719 140° Southeast 263 303 6,900  Level FAA TRACON SMA TRACON (SMA)
07:31AM 41.9864 -82.3486 142° Southeast 262 302 6,900  Level FAA TRACON SMA TRACON (SMA)
07:31AM 41.9694 -82.3292 140° Southeast 261 300 6,900  Level FAA TRACON SMA TRACON (SMA)
07:32AM 41.9525 -82.3100 140° Southeast 260 299 6,900 120 Level FAA TRACON SMA TRACON (SMA)
07:32AM 41.9308 -82.2861 141° Southeast 261 300 7,000  Climbing FAA TRACON SMA TRACON (SMA)
07:32AM 41.9131 -82.2672 142° Southeast 262 302 6,900 -180 Descending FAA TRACON SMA TRACON (SMA)
07:33AM 41.9039 -82.2578 143° Southeast 263 303 6,900  Level FAA TRACON SMA TRACON (SMA)
07:33AM 41.9039 -82.2578 124° Southeast 263 303 6,900 60 Level FAA TRACON SMA TRACON (SMA)
07:34AM 41.8361 -82.1939 145° Southeast 267 307 7,000 60 Climbing Cleveland Center
07:34AM 41.8114 -82.1656 139° Southeast 260 299 7,000  Level Cleveland Center
07:35AM 41.7806 -82.1314 140° Southeast 267 307 7,000  Level Cleveland Center
07:35AM 41.7417 -82.0914 142° Southeast 259 298 7,000 60 Level Cleveland Center
07:36AM 41.7253 -82.0717 138° Southeast 267 307 7,100  Climbing Cleveland Center
07:36AM 41.6983 -82.0458 144° Southeast 257 296 7,000 -120 Descending Cleveland Center
07:37AM 41.6675 -82.0147 143° Southeast 262 302 7,000  Level Cleveland Center
07:37AM 41.6386 -81.9917 149° Southeast 258 297 7,000  Level Cleveland Center
07:38AM 41.6142 -81.9550 132° Southeast 260 299 7,000  Level Cleveland Center
07:38AM 41.6019 -81.9133 111° Southeast 246 283 7,000  Level Cleveland Center
07:39AM 41.5900 -81.8714 111° Southeast 241 277 7,000  Level Cleveland Center
07:39AM 41.5758 -81.8294 114° Southeast 224 258 7,000 60 Level Cleveland Center
07:40AM 41.5914 -81.7464 76° East 228 262 7,100  Climbing Cleveland Center
07:41AM 41.6172 -81.6719 65° Northeast 228 262 7,100 -60 Level Cleveland Center
07:43AM 41.6575 -81.5892 57° Northeast 232 267 7,000 -60 Descending Cleveland Center
07:44AM 41.7039 -81.5175 49° Northeast 229 264 7,000  Level Cleveland Center
07:45AM 41.7128 -81.4483 80° East 227 261 7,100 -420 Climbing Cleveland Center
07:45AM 41.6692 -81.4475 179° South 200 230 6,300 -960 Descending Cleveland Center
07:46AM 41.6561 -81.5003 252° West 172 198 5,400 -660 Descending Cleveland Center
07:47AM 41.6267 -81.5414 226° Southwest 187 215 5,100 -180 Descending Cleveland Center
07:48AM 41.5847 -81.5742 210° Southwest 171 197 5,100 -60 Level Cleveland Center
07:50AM 41.5528 -81.6319 234° Southwest 169 194 5,000 -420 Descending Cleveland Center
07:50AM 41.5253 -81.6758 230° Southwest 172 198 4,300 -900 Descending Cleveland Center
07:51AM 41.4914 -81.7253 228° Southwest 175 201 3,300 -1,020 Descending Cleveland Center